Time;durP1;ratioP1;P1;durP2;ratioP2;P2;SDS_P1;SDS_P2;PMS_P1;PMS_P2;Temp;Humidity;BMP_temperature;BMP_pressure;BME280_temperature;BME280_humidity;BME280_pressure;Samples;Min_cycle;Max_cycle;Signal;HPM_P1;HPM_P2
2023/03/25 00:02:20;;;;;;;23.27;17.80;;;;;;;7.75;100.00;3896.44;5048912;28;20288;-60
2023/03/25 00:04:50;;;;;;;13.47;10.80;;;;;;;7.86;100.00;-240.34;5049671;28;20185;-60
2023/03/25 00:07:18;;;;;;;12.40;9.93;;;;;;;7.49;100.00;7715.38;5048685;28;20190;-60
2023/03/25 00:09:47;;;;;;;14.50;13.07;;;;;;;7.56;100.00;6442.06;5048751;28;20182;-60
2023/03/25 00:12:15;;;;;;;47.33;30.17;;;;;;;7.68;100.00;-2148.66;5049052;28;20635;-60
2023/03/25 00:14:42;;;;;;;89.47;53.50;;;;;;;7.52;100.00;-1831.16;5048678;28;20213;-61
2023/03/25 00:17:09;;;;;;;119.00;66.40;;;;;;;7.51;100.00;-6594.25;5048652;28;20250;-60
2023/03/25 00:19:36;;;;;;;95.87;55.33;;;;;;;7.63;100.00;-8181.38;5048596;28;20262;-60
2023/03/25 00:22:03;;;;;;;55.83;36.33;;;;;;;7.57;100.00;-8180.88;5048900;28;20182;-59
2023/03/25 00:24:30;;;;;;;41.70;25.73;;;;;;;7.76;100.00;-5643.22;5031085;28;20669;-60
2023/03/25 00:26:58;;;;;;;18.13;14.27;;;;;;;7.78;100.00;-2784.19;5048909;28;20753;-60
2023/03/25 00:29:25;;;;;;;10.70;9.73;;;;;;;7.53;100.00;-1513.34;5048738;28;20185;-59
2023/03/25 00:31:52;;;;;;;11.20;10.10;;;;;;;7.97;100.00;-1194.13;5048452;28;20189;-60
2023/03/25 00:34:19;;;;;;;8.17;7.77;;;;;;;8.02;100.00;-875.88;5048381;28;20208;-60
2023/03/25 00:36:46;;;;;;;7.90;7.20;;;;;;;7.97;100.00;-557.97;5048480;28;20212;-61
2023/03/25 00:39:13;;;;;;;7.30;6.70;;;;;;;7.96;100.00;-558.00;5048403;28;20197;-61
2023/03/25 00:41:40;;;;;;;6.93;6.40;;;;;;;7.94;100.00;-558.09;5048579;28;20186;-60
2023/03/25 00:44:13;;;;;;;6.17;5.80;;;;;;;8.07;100.00;-875.69;5048394;28;20242;-60
2023/03/25 00:46:40;;;;;;;6.17;5.77;;;;;;;8.07;100.00;-557.53;5048165;28;20215;-59
2023/03/25 00:49:07;;;;;;;6.60;6.30;;;;;;;8.19;100.00;-875.25;5048295;28;20185;-60
2023/03/25 00:51:34;;;;;;;6.10;5.70;;;;;;;8.22;100.00;-1193.34;5048554;28;20196;-60
2023/03/25 00:54:02;;;;;;;6.10;5.70;;;;;;;8.23;100.00;-875.13;5048139;28;20203;-59
2023/03/25 00:56:30;;;;;;;6.53;6.10;;;;;;;8.24;100.00;-1193.28;5048077;28;20223;-60
2023/03/25 00:58:57;;;;;;;5.97;5.57;;;;;;;8.13;100.00;-1511.78;5048281;28;20250;-60
2023/03/25 01:01:27;;;;;;;7.00;6.43;;;;;;;8.19;100.00;-2147.88;5048443;28;20182;-60
2023/03/25 01:03:57;;;;;;;7.13;6.57;;;;;;;8.19;100.00;-2465.94;5048489;28;20567;-61
2023/03/25 01:06:28;;;;;;;7.40;6.80;;;;;;;8.20;100.00;-2465.91;5051287;28;20262;-60
2023/03/25 01:08:57;;;;;;;7.80;7.20;;;;;;;8.14;100.00;-2784.00;5051879;28;20221;-59
2023/03/25 01:11:26;;;;;;;8.00;7.40;;;;;;;8.08;100.00;-3102.00;5051495;28;20196;-61
2023/03/25 01:13:55;;;;;;;8.03;7.40;;;;;;;7.98;100.00;-3419.88;5051802;28;20192;-60
2023/03/25 01:16:22;;;;;;;7.40;6.97;;;;;;;8.09;100.00;-3737.81;5051219;28;20212;-60
2023/03/25 01:18:51;;;;;;;7.47;7.07;;;;;;;7.97;100.00;-3737.69;5051403;28;20201;-61
2023/03/25 01:21:18;;;;;;;8.83;8.27;;;;;;;8.04;100.00;-3737.75;5051310;28;20181;-60
2023/03/25 01:23:45;;;;;;;8.83;7.97;;;;;;;8.00;100.00;-4373.34;5051374;28;20186;-60
2023/03/25 01:26:12;;;;;;;9.10;8.33;;;;;;;8.11;100.00;-4373.56;5051360;28;20189;-61
2023/03/25 01:28:40;;;;;;;8.53;7.93;;;;;;;7.80;100.00;-4372.94;5051418;28;20185;-60
2023/03/25 01:31:09;;;;;;;9.00;8.40;;;;;;;8.05;100.00;-4373.44;5051506;28;20193;-60
2023/03/25 01:33:36;;;;;;;9.77;8.83;;;;;;;8.09;100.00;-4373.53;5051403;28;20568;-61
2023/03/25 01:36:08;;;;;;;8.80;8.07;;;;;;;8.04;100.00;-4373.41;5051405;28;20206;-62
2023/03/25 01:38:36;;;;;;;9.53;8.53;;;;;;;8.26;100.00;-4691.75;5051363;28;20228;-60
2023/03/25 01:41:05;;;;;;;9.17;8.33;;;;;;;8.33;100.00;-4374.00;5051352;28;20186;-60
2023/03/25 01:43:33;;;;;;;9.23;8.63;;;;;;;8.25;100.00;-3737.97;5051026;28;20249;-61
2023/03/25 01:46:00;;;;;;;10.03;9.17;;;;;;;7.86;100.00;-3102.00;5051050;28;20193;-61
2023/03/25 01:48:34;;;;;;;8.43;7.83;;;;;;;8.18;100.00;-2465.94;5050896;28;20229;-61
2023/03/25 01:51:11;;;;;;;9.07;8.47;;;;;;;8.26;100.00;-2783.94;5051219;28;20620;-60
2023/03/25 01:53:40;;;;;;;9.63;8.83;;;;;;;8.26;100.00;-2783.94;5050745;28;20185;-60
2023/03/25 01:56:12;;;;;;;12.53;10.10;;;;;;;8.30;100.00;-2783.91;5050767;28;20212;-60
2023/03/25 01:58:41;;;;;;;9.50;8.70;;;;;;;8.32;100.00;-2783.91;5050750;28;20193;-59
2023/03/25 02:01:12;;;;;;;9.27;8.67;;;;;;;8.26;100.00;-2465.84;5050675;28;20282;-60
2023/03/25 02:03:45;;;;;;;10.53;9.77;;;;;;;8.26;100.00;-2783.94;5051151;28;20198;-60
2023/03/25 02:06:18;;;;;;;10.80;9.80;;;;;;;8.09;100.00;-2784.03;5051033;28;20550;-60
2023/03/25 02:08:45;;;;;;;9.67;8.80;;;;;;;8.04;100.00;-3419.91;5050673;28;20190;-60
2023/03/25 02:11:12;;;;;;;10.83;9.87;;;;;;;8.23;100.00;-4373.81;5051104;28;20189;-59
2023/03/25 02:13:41;;;;;;;9.87;9.20;;;;;;;8.37;100.00;-4692.03;5050589;28;20190;-61
2023/03/25 02:16:22;;;;;;;10.17;9.50;;;;;;;8.41;100.00;-4692.13;5049878;28;20212;-60
2023/03/25 02:19:03;;;;;;;10.63;9.93;;;;;;;8.35;100.00;-4374.03;5050421;28;20189;-60
2023/03/25 02:22:10;;;;;;;10.67;9.97;;;;;;;8.41;100.00;-4374.16;5050304;28;20186;-60
2023/03/25 02:25:22;;;;;;;10.03;9.33;;;;;;;8.45;100.00;-4056.22;5050727;28;20185;-60
2023/03/25 02:27:59;;;;;;;10.77;9.80;;;;;;;8.45;100.00;-3738.16;5062469;28;20587;-60
2023/03/25 02:30:38;;;;;;;9.40;8.73;;;;;;;8.44;100.00;-3101.97;5050219;28;20200;-59
2023/03/25 02:33:27;;;;;;;10.03;9.30;;;;;;;8.47;100.00;-3420.09;5050354;28;20185;-60
2023/03/25 02:36:21;;;;;;;10.40;9.67;;;;;;;8.54;100.00;-2783.78;5050384;28;20587;-60
2023/03/25 02:38:51;;;;;;;11.60;10.50;;;;;;;8.52;100.00;-2783.78;5050488;28;20564;-61
2023/03/25 02:41:24;;;;;;;10.47;9.67;;;;;;;8.62;100.00;-2465.47;5050164;28;20192;-60
2023/03/25 02:43:56;;;;;;;9.73;8.93;;;;;;;8.59;100.00;-2465.50;5050224;28;20189;-61
2023/03/25 02:46:26;;;;;;;8.90;8.50;;;;;;;8.63;100.00;-2147.16;5050289;28;20624;-60
2023/03/25 02:48:58;;;;;;;9.97;9.37;;;;;;;8.57;100.00;-1828.97;5049784;28;20233;-60
2023/03/25 02:51:29;;;;;;;10.00;9.20;;;;;;;8.58;100.00;-1828.94;5049942;28;20185;-60
2023/03/25 02:54:05;;;;;;;9.50;8.90;;;;;;;8.54;100.00;-1829.00;5050315;28;20563;-60
2023/03/25 02:56:32;;;;;;;9.60;9.00;;;;;;;8.42;100.00;-2465.69;5050113;28;20209;-61
2023/03/25 02:59:02;;;;;;;9.17;8.57;;;;;;;8.12;100.00;-2147.97;5049967;28;20315;-60
2023/03/25 03:01:29;;;;;;;9.80;9.30;;;;;;;8.48;100.00;-2465.63;5049871;28;20190;-61
2023/03/25 03:03:56;;;;;;;10.57;9.80;;;;;;;8.51;100.00;-3101.97;5050278;28;20232;-61
2023/03/25 03:06:25;;;;;;;9.00;8.50;;;;;;;8.61;100.00;-2465.47;5049749;28;20185;-62
2023/03/25 03:09:11;;;;;;;10.03;9.43;;;;;;;8.60;100.00;-2783.75;5049702;28;20230;-60
2023/03/25 03:11:45;;;;;;;9.87;9.07;;;;;;;8.46;100.00;-2783.81;5049971;28;20628;-60
2023/03/25 03:14:28;;;;;;;9.73;9.23;;;;;;;8.52;100.00;-3101.97;5050095;28;20188;-59
2023/03/25 03:17:04;;;;;;;10.70;8.57;;;;;;;8.49;100.00;-3101.97;5049868;28;20317;-61
2023/03/25 03:19:40;;;;;;;9.10;8.50;;;;;;;8.47;100.00;-3738.19;5049868;28;20257;-61
2023/03/25 03:22:20;;;;;;;9.07;8.47;;;;;;;8.43;100.00;-3738.16;5049438;28;20234;-61
2023/03/25 03:24:53;;;;;;;9.17;8.57;;;;;;;8.48;100.00;-4056.25;5049703;28;20181;-59
2023/03/25 03:27:32;;;;;;;9.33;8.70;;;;;;;8.28;100.00;-4055.97;5049667;28;20620;-60
2023/03/25 03:30:05;;;;;;;9.20;8.70;;;;;;;8.33;100.00;-4374.00;5049577;28;20185;-61
2023/03/25 03:32:40;;;;;;;9.70;9.00;;;;;;;8.37;100.00;-4692.03;5049275;28;20195;-60
2023/03/25 03:35:12;;;;;;;8.50;7.93;;;;;;;8.37;100.00;-4692.03;5049500;28;20193;-60
2023/03/25 03:37:43;;;;;;;10.37;9.77;;;;;;;8.43;100.00;-5328.03;5049547;28;20186;-60
2023/03/25 03:40:17;;;;;;;10.17;9.47;;;;;;;8.33;100.00;-5645.50;5049194;28;20193;-59
2023/03/25 03:42:47;;;;;;;10.37;9.50;;;;;;;8.54;100.00;-5328.44;5049232;28;20185;-60
2023/03/25 03:45:19;;;;;;;10.80;10.00;;;;;;;8.58;100.00;-5328.59;5049500;28;20559;-60
2023/03/25 03:47:49;;;;;;;9.23;8.53;;;;;;;8.59;100.00;-4374.50;5049054;27;20241;-60
2023/03/25 03:50:23;;;;;;;9.77;9.00;;;;;;;8.48;100.00;-4692.31;5049057;28;20216;-61
2023/03/25 03:52:56;;;;;;;9.40;8.80;;;;;;;8.49;100.00;-4692.34;5049244;28;20185;-60
2023/03/25 03:55:29;;;;;;;8.63;8.13;;;;;;;8.52;100.00;-5010.41;5049291;28;20676;-60
2023/03/25 03:58:02;;;;;;;9.83;9.13;;;;;;;8.47;100.00;-5328.19;5048954;28;20177;-60
2023/03/25 04:00:35;;;;;;;10.00;9.30;;;;;;;8.31;100.00;-5645.44;5049202;28;20192;-60
2023/03/25 04:03:09;;;;;;;9.43;8.93;;;;;;;8.46;100.00;-5328.16;5049126;28;20618;-60
2023/03/25 04:05:37;;;;;;;6.90;6.50;;;;;;;8.47;100.00;-5328.19;5049170;28;20628;-60
2023/03/25 04:08:12;;;;;;;10.53;9.53;;;;;;;8.43;100.00;-5963.78;5049122;28;20197;-60
2023/03/25 04:10:51;;;;;;;9.23;8.63;;;;;;;8.56;100.00;-5646.44;5048768;28;20188;-60
2023/03/25 04:13:20;;;;;;;10.30;9.63;;;;;;;8.58;100.00;-5964.47;5049025;28;20189;-60
2023/03/25 04:15:47;;;;;;;11.67;10.73;;;;;;;8.34;100.00;-6281.13;5049131;28;20231;-60
2023/03/25 04:18:14;;;;;;;11.77;10.77;;;;;;;8.53;100.00;-6599.97;5048749;28;20188;-61
2023/03/25 04:20:43;;;;;;;11.70;10.80;;;;;;;8.71;100.00;-6601.00;5049069;28;20220;-60
2023/03/25 04:23:14;;;;;;;10.93;10.23;;;;;;;8.85;100.00;-6601.75;5048687;28;20189;-60
2023/03/25 04:25:46;;;;;;;11.97;10.93;;;;;;;8.94;100.00;-6602.22;5048651;28;20186;-61
2023/03/25 04:28:16;;;;;;;13.13;11.07;;;;;;;8.92;100.00;-5966.00;5048487;28;20197;-60
2023/03/25 04:30:44;;;;;;;12.37;11.40;;;;;;;8.85;100.00;-5965.69;5048886;28;20208;-60
2023/03/25 04:33:12;;;;;;;12.50;11.37;;;;;;;9.01;100.00;-5966.44;5048858;28;20617;-60
2023/03/25 04:35:39;;;;;;;11.77;10.80;;;;;;;9.04;100.00;-5648.38;5048395;28;20208;-60
2023/03/25 04:38:06;;;;;;;11.93;10.77;;;;;;;9.00;100.00;-5330.03;5048765;28;20189;-60
2023/03/25 04:40:33;;;;;;;11.67;10.77;;;;;;;8.99;100.00;-5330.03;5052763;28;20197;-61
2023/03/25 04:43:01;;;;;;;11.90;10.97;;;;;;;9.07;100.00;-5330.28;5037350;28;20191;-59
2023/03/25 04:45:29;;;;;;;13.40;11.80;;;;;;;9.00;100.00;-5330.03;5055346;28;20555;-60
2023/03/25 04:47:56;;;;;;;12.37;11.27;;;;;;;9.01;100.00;-5966.41;5055178;27;20232;-60
2023/03/25 04:50:26;;;;;;;14.10;10.50;;;;;;;9.08;100.00;-6284.88;5055189;28;20568;-60
2023/03/25 04:52:56;;;;;;;11.90;10.83;;;;;;;9.04;100.00;-6284.69;5055210;28;20196;-61
2023/03/25 04:55:24;;;;;;;11.20;10.30;;;;;;;8.99;100.00;-6602.50;5054829;28;20208;-61
2023/03/25 04:57:53;;;;;;;11.50;10.23;;;;;;;8.96;100.00;-6602.34;5055214;28;20254;-60
2023/03/25 05:00:23;;;;;;;10.87;9.97;;;;;;;9.07;100.00;-6602.97;5054855;28;20222;-60
2023/03/25 05:02:52;;;;;;;10.33;9.63;;;;;;;9.05;100.00;-6920.94;5055138;28;20655;-60
2023/03/25 05:05:22;;;;;;;9.97;9.37;;;;;;;9.21;100.00;-6603.75;5055017;28;20273;-60
2023/03/25 05:07:50;;;;;;;9.07;8.47;;;;;;;9.05;100.00;-5966.63;5055087;28;20264;-60
2023/03/25 05:10:18;;;;;;;9.03;8.27;;;;;;;9.08;100.00;-6284.91;5054907;28;20652;-60
2023/03/25 05:12:45;;;;;;;10.63;9.20;;;;;;;9.05;100.00;-6602.84;5054621;28;20568;-61
2023/03/25 05:15:13;;;;;;;10.17;9.47;;;;;;;8.87;100.00;-6919.84;5054715;28;20186;-61
2023/03/25 05:17:42;;;;;;;10.07;9.13;;;;;;;9.09;100.00;-6284.97;5054684;28;20205;-59
2023/03/25 05:20:10;;;;;;;11.70;10.70;;;;;;;9.02;100.00;-7238.78;5054861;28;20186;-59
2023/03/25 05:22:37;;;;;;;9.87;8.87;;;;;;;8.92;100.00;-7556.09;5054564;28;20544;-60
2023/03/25 05:25:05;;;;;;;10.10;8.93;;;;;;;9.23;100.00;-7876.38;5054867;28;20189;-60
2023/03/25 05:27:34;;;;;;;10.87;9.77;;;;;;;9.14;100.00;-7557.69;5054745;28;20552;-60
2023/03/25 05:30:00;;;;;;;10.30;9.23;;;;;;;9.16;100.00;-7239.72;5054938;28;20193;-60
2023/03/25 05:32:32;;;;;;;12.57;11.53;;;;;;;9.13;100.00;-8193.63;5054485;28;20262;-60
2023/03/25 05:35:00;;;;;;;18.73;11.50;;;;;;;9.23;100.00;-8194.41;5054706;28;20670;-60
2023/03/25 05:37:28;;;;;;;12.20;11.10;;;;;;;9.30;100.00;-7876.88;5054278;28;20292;-60
2023/03/25 05:39:55;;;;;;;12.40;11.40;;;;;;;9.41;100.00;-8195.88;5054361;28;20190;-61
2023/03/25 05:42:22;;;;;;;11.07;9.93;;;;;;;9.45;100.00;-7878.06;5054441;27;20198;-59
2023/03/25 05:44:50;;;;;;;9.53;8.83;;;;;;;9.71;100.00;-7879.97;5054576;28;20658;-61
2023/03/25 05:47:20;;;;;;;8.13;7.53;;;;;;;9.80;100.00;-7562.28;5054101;27;20236;-61
2023/03/25 05:49:47;;;;;;;9.13;8.53;;;;;;;9.98;100.00;-10428.69;5054210;28;20192;-60
2023/03/25 05:52:17;;;;;;;9.07;8.37;;;;;;;10.01;100.00;-12973.72;5050959;28;20650;-62
2023/03/25 05:54:50;;;;;;;9.80;8.90;;;;;;;9.96;100.00;-15515.44;5050958;28;20192;-60
2023/03/25 05:57:17;;;;;;;9.50;8.90;;;;;;;10.26;100.00;-16474.75;5050776;28;20209;-60
2023/03/25 05:59:44;;;;;;;9.30;8.67;;;;;;;10.48;100.00;-17750.81;5050815;28;20193;-61
2023/03/25 06:02:14;;;;;;;10.03;9.20;;;;;;;10.91;100.00;-18080.56;5051186;28;20186;-61
2023/03/25 06:04:41;;;;;;;9.17;7.90;;;;;;;10.42;100.00;-18068.97;5051284;28;20293;-61
2023/03/25 06:07:12;;;;;;;9.60;8.77;;;;;;;10.69;100.00;-18075.25;5050684;28;20273;-61
2023/03/25 06:09:44;;;;;;;10.37;9.47;;;;;;;10.68;100.00;-18075.13;5050963;28;20637;-61
2023/03/25 06:12:13;;;;;;;9.23;8.43;;;;;;;10.68;100.00;-18075.00;5050899;28;20657;-61
2023/03/25 06:14:41;;;;;;;8.77;8.17;;;;;;;10.65;100.00;-18074.28;5050893;28;20558;-60
2023/03/25 06:17:10;;;;;;;10.00;9.40;;;;;;;10.80;100.00;-18077.91;5050736;28;20209;-60
2023/03/25 06:19:41;;;;;;;10.03;9.13;;;;;;;11.03;100.00;-17445.44;5050595;28;20245;-60
2023/03/25 06:22:09;;;;;;;11.50;8.87;;;;;;;10.78;100.00;-16167.84;5050454;28;20188;-60
2023/03/25 06:24:36;;;;;;;8.63;7.90;;;;;;;10.50;100.00;-15208.28;5050799;28;20554;-60
2023/03/25 06:27:08;;;;;;;7.53;6.97;;;;;;;10.44;100.00;-17432.03;5050410;28;20261;-61
2023/03/25 06:29:36;;;;;;;9.07;8.27;;;;;;;10.56;100.00;-18070.25;5050750;28;20242;-60
2023/03/25 06:32:03;;;;;;;8.73;7.90;;;;;;;11.19;100.00;-17131.00;5050596;28;20185;-60
2023/03/25 06:34:31;;;;;;;8.33;7.83;;;;;;;11.59;100.00;-8851.88;5050303;28;20242;-60
2023/03/25 06:36:58;;;;;;;11.07;8.50;;;;;;;11.98;100.00;-1501.38;5050551;28;20675;-61
2023/03/25 06:39:25;;;;;;;7.13;6.63;;;;;;;12.69;100.00;14885.25;5049923;28;20197;-62
2023/03/25 06:41:52;;;;;;;8.00;7.47;;;;;;;13.05;100.00;42400.59;5050278;28;20182;-61
2023/03/25 06:44:20;;;;;;;8.40;7.90;;;;;;;13.23;100.00;48595.06;5050010;28;20190;-61
2023/03/25 06:46:47;;;;;;;14.57;7.87;;;;;;;12.79;100.00;59639.19;5050310;28;20205;-61
2023/03/25 06:49:14;;;;;;;7.70;7.07;;;;;;;13.63;100.00;60051.75;5032507;28;20181;-62
2023/03/25 06:51:41;;;;;;;7.13;6.63;;;;;;;14.08;100.00;130163.84;5050652;28;20213;-61
2023/03/25 06:54:08;;;;;;;7.37;6.97;;;;;;;13.57;100.00;114078.91;5050314;28;20196;-61
2023/03/25 06:56:35;;;;;;;7.90;7.40;;;;;;;13.73;100.00;91926.41;5050116;28;20583;-60
2023/03/25 06:59:02;;;;;;;7.47;6.70;;;;;;;13.53;100.00;98170.06;5050249;28;20193;-62
2023/03/25 07:01:30;;;;;;;8.20;7.50;;;;;;;13.39;100.00;96824.31;5050174;28;20189;-61
2023/03/25 07:03:57;;;;;;;7.73;7.07;;;;;;;12.97;100.00;76679.13;5049730;28;20228;-61
2023/03/25 07:06:24;;;;;;;7.93;7.43;;;;;;;13.05;100.00;63586.75;5049804;28;20186;-61
2023/03/25 07:08:53;;;;;;;7.67;7.27;;;;;;;12.58;100.00;59943.88;5049743;28;20186;-61
2023/03/25 07:11:25;;;;;;;11.43;7.50;;;;;;;13.19;100.00;52827.03;5049893;28;20202;-60
2023/03/25 07:13:52;;;;;;;7.73;7.17;;;;;;;12.81;100.00;53769.63;5049999;28;20190;-61
2023/03/25 07:16:22;;;;;;;6.80;6.40;;;;;;;12.04;100.00;32608.19;5049866;28;20212;-60
2023/03/25 07:18:50;;;;;;;7.60;7.07;;;;;;;11.15;100.00;9062.53;5049534;28;20178;-60
2023/03/25 07:21:18;;;;;;;8.97;8.33;;;;;;;11.25;100.00;-2142.78;5049870;28;20570;-60
2023/03/25 07:23:47;;;;;;;9.07;8.13;;;;;;;11.33;100.00;-4699.28;5049537;28;20302;-61
2023/03/25 07:26:15;;;;;;;8.80;8.10;;;;;;;11.18;100.00;-5976.16;5049487;28;20186;-62
2023/03/25 07:28:42;;;;;;;8.20;7.07;;;;;;;10.95;100.00;-5336.81;5049778;28;20186;-60
2023/03/25 07:31:10;;;;;;;8.30;7.70;;;;;;;11.10;100.00;-7890.47;5049358;28;20224;-60
2023/03/25 07:33:37;;;;;;;7.03;6.73;;;;;;;10.54;100.00;-6292.25;5049640;28;20657;-60
2023/03/25 07:36:08;;;;;;;9.57;7.60;;;;;;;10.33;100.00;-8521.91;5049685;28;20186;-60
2023/03/25 07:38:35;;;;;;;7.90;7.57;;;;;;;10.25;100.00;-12659.34;5049174;28;20228;-61
2023/03/25 07:41:05;;;;;;;8.70;8.10;;;;;;;10.52;100.00;-13936.38;5049266;28;20197;-60
2023/03/25 07:43:32;;;;;;;9.53;8.83;;;;;;;10.46;100.00;-12980.78;5049475;28;20258;-61
2023/03/25 07:45:59;;;;;;;10.30;9.60;;;;;;;10.21;100.00;-14566.84;5049119;28;20182;-60
2023/03/25 07:48:26;;;;;;;10.87;9.93;;;;;;;10.13;100.00;-17742.53;5048927;27;20240;-61
2023/03/25 07:50:56;;;;;;;10.50;9.80;;;;;;;10.20;100.00;-18063.53;5049387;28;20190;-60
2023/03/25 07:53:25;;;;;;;11.10;9.80;;;;;;;9.94;100.00;-18057.34;5049010;28;20193;-59
2023/03/25 07:55:51;;;;;;;8.23;7.63;;;;;;;9.72;100.00;-17415.47;5048915;28;20190;-59
2023/03/25 07:58:19;;;;;;;9.17;8.37;;;;;;;9.58;100.00;-15190.50;5049130;28;20572;-59
2023/03/25 08:00:46;;;;;;;12.37;11.37;;;;;;;9.72;100.00;-13286.97;5049244;28;20204;-60
2023/03/25 08:03:14;;;;;;;10.43;9.43;;;;;;;9.62;100.00;-11378.34;5049146;28;20201;-59
2023/03/25 08:05:45;;;;;;;13.00;9.83;;;;;;;9.69;100.00;-9470.91;5048914;28;20276;-60
2023/03/25 08:08:12;;;;;;;11.07;9.97;;;;;;;9.17;100.00;-8511.94;5031359;28;20564;-61
2023/03/25 08:10:42;;;;;;;10.73;9.63;;;;;;;9.14;100.00;-7239.59;5048747;28;20188;-59
2023/03/25 08:13:09;;;;;;;8.30;7.70;;;;;;;9.17;100.00;-5967.16;5048717;28;20253;-60
2023/03/25 08:15:36;;;;;;;15.10;11.23;;;;;;;9.24;100.00;-4375.78;5047984;28;20647;-61
2023/03/25 08:18:05;;;;;;;8.17;7.47;;;;;;;8.85;100.00;-3101.94;5048633;28;20220;-61
2023/03/25 08:20:32;;;;;;;15.70;8.37;;;;;;;8.92;100.00;-3738.63;5048621;28;20192;-60
2023/03/25 08:22:59;;;;;;;13.60;9.80;;;;;;;8.63;100.00;-3738.34;5048666;28;20185;-60
2023/03/25 08:25:26;;;;;;;12.47;9.30;;;;;;;8.78;100.00;-3738.47;5030798;28;20204;-60
2023/03/25 08:27:55;;;;;;;16.67;9.70;;;;;;;8.75;100.00;-3420.22;5048854;28;20711;-60
2023/03/25 08:30:22;;;;;;;10.47;9.47;;;;;;;8.68;100.00;-3420.19;5048446;28;20192;-60
2023/03/25 08:32:53;;;;;;;9.17;8.40;;;;;;;9.03;100.00;-1509.41;5048852;28;20593;-59
2023/03/25 08:35:20;;;;;;;7.77;7.17;;;;;;;8.71;100.00;-873.34;5048553;28;20300;-61
2023/03/25 08:37:47;;;;;;;9.53;8.77;;;;;;;8.78;100.00;-2465.28;5048549;28;20209;-60
2023/03/25 08:40:15;;;;;;;11.90;10.07;;;;;;;9.10;100.00;-3738.78;5048744;28;20197;-59
2023/03/25 08:42:43;;;;;;;10.17;9.27;;;;;;;9.30;100.00;-1189.94;5048731;28;20567;-61
2023/03/25 08:45:14;;;;;;;14.00;10.33;;;;;;;9.35;100.00;85.56;5048353;28;20185;-60
2023/03/25 08:47:41;;;;;;;10.50;9.60;;;;;;;9.03;100.00;402.63;5048148;27;20247;-60
2023/03/25 08:50:09;;;;;;;9.10;7.77;;;;;;;8.99;100.00;-553.69;5048700;28;20182;-61
2023/03/25 08:52:36;;;;;;;11.83;10.73;;;;;;;9.37;100.00;-1508.50;5048250;28;20232;-60
2023/03/25 08:55:03;;;;;;;10.47;9.00;;;;;;;9.27;100.00;-1508.78;5048675;28;20262;-59
2023/03/25 08:57:30;;;;;;;12.50;11.20;;;;;;;9.26;100.00;-2783.34;5048169;28;20225;-60
2023/03/25 08:59:57;;;;;;;11.60;10.50;;;;;;;9.36;100.00;-3101.91;5048324;28;20190;-60
2023/03/25 09:02:25;;;;;;;11.17;10.03;;;;;;;9.38;100.00;-3101.88;5047993;28;20190;-60
2023/03/25 09:04:52;;;;;;;10.50;9.57;;;;;;;9.43;100.00;-3420.50;5048161;28;20185;-61
2023/03/25 09:07:22;;;;;;;11.73;8.20;;;;;;;9.21;100.00;-3101.91;5048507;28;20264;-61
2023/03/25 09:09:49;;;;;;;11.50;10.33;;;;;;;9.14;100.00;-4693.94;5047952;28;20230;-61
2023/03/25 09:12:15;;;;;;;10.63;9.80;;;;;;;9.18;100.00;-5012.38;5048310;28;20560;-60
2023/03/25 09:14:42;;;;;;;12.30;11.17;;;;;;;9.35;100.00;-5012.88;5047945;28;20585;-61
2023/03/25 09:17:09;;;;;;;12.47;11.27;;;;;;;9.46;100.00;-4694.75;5048182;28;20663;-60
2023/03/25 09:19:38;;;;;;;12.23;11.03;;;;;;;9.57;100.00;-4376.44;5030290;28;20246;-59
2023/03/25 09:22:05;;;;;;;13.67;10.80;;;;;;;9.87;100.00;-4058.25;5047920;28;20190;-61
2023/03/25 09:24:32;;;;;;;8.13;7.63;;;;;;;9.62;100.00;-3420.59;5048294;28;20181;-62
2023/03/25 09:27:00;;;;;;;11.13;10.13;;;;;;;9.62;100.00;-5650.72;5050147;28;20250;-61
2023/03/25 09:29:28;;;;;;;10.93;10.03;;;;;;;9.70;100.00;-6924.88;5051174;28;20185;-61
2023/03/25 09:31:57;;;;;;;10.40;9.70;;;;;;;9.69;100.00;-6924.78;5051543;28;20597;-60
2023/03/25 09:34:24;;;;;;;10.37;9.47;;;;;;;9.55;100.00;-7878.81;5051143;28;20378;-60
2023/03/25 09:36:52;;;;;;;10.80;9.97;;;;;;;9.67;100.00;-7879.69;5051324;28;20213;-61
2023/03/25 09:39:19;;;;;;;10.27;9.30;;;;;;;9.71;100.00;-7243.28;5051279;28;20212;-60
2023/03/25 09:42:02;;;;;;;9.87;9.20;;;;;;;9.63;100.00;-7561.16;5051433;28;20656;-61
2023/03/25 09:44:34;;;;;;;10.83;9.83;;;;;;;9.67;100.00;-7879.69;5051097;28;20196;-60
2023/03/25 09:47:03;;;;;;;16.67;11.73;;;;;;;9.66;100.00;-7561.28;5050937;27;20231;-59
2023/03/25 09:49:40;;;;;;;9.80;9.03;;;;;;;9.58;100.00;-8197.25;5051158;28;20621;-62
2023/03/25 09:52:15;;;;;;;12.10;10.73;;;;;;;9.54;100.00;-9151.41;5051011;28;20221;-60
2023/03/25 09:54:48;;;;;;;11.00;10.10;;;;;;;9.49;100.00;-9468.97;5050871;28;20181;-61
2023/03/25 09:57:20;;;;;;;13.53;12.20;;;;;;;9.64;100.00;-9152.38;5050829;28;20212;-63
2023/03/25 09:59:49;;;;;;;13.00;11.13;;;;;;;9.56;100.00;-9469.69;5050939;28;20276;-61
2023/03/25 10:02:32;;;;;;;10.40;9.27;;;;;;;9.53;100.00;-8515.00;5051098;28;20189;-60
2023/03/25 10:05:20;;;;;;;14.47;11.77;;;;;;;9.44;100.00;-8514.25;5051056;28;20261;-60
2023/03/25 10:08:04;;;;;;;12.77;11.63;;;;;;;9.90;100.00;-8199.81;5050679;28;20189;-60
2023/03/25 10:10:40;;;;;;;27.17;12.60;;;;;;;9.99;100.00;-8200.56;5050568;28;20189;-60
2023/03/25 10:13:18;;;;;;;13.67;12.03;;;;;;;9.89;100.00;-10745.69;5051006;28;20189;-60
2023/03/25 10:15:52;;;;;;;13.70;12.20;;;;;;;9.64;100.00;-11378.63;5050868;28;20194;-61
2023/03/25 10:18:40;;;;;;;15.60;13.20;;;;;;;9.71;100.00;-11697.44;5050553;28;20210;-61
2023/03/25 10:21:14;;;;;;;15.27;13.00;;;;;;;9.84;100.00;-11063.22;5050567;28;20311;-60
2023/03/25 10:23:48;;;;;;;14.27;12.73;;;;;;;9.74;100.00;-10743.84;5050633;28;20235;-60
2023/03/25 10:26:22;;;;;;;13.63;12.40;;;;;;;9.80;100.00;-11062.66;5050850;28;20185;-60
2023/03/25 10:28:57;;;;;;;16.67;14.53;;;;;;;9.80;100.00;-11380.75;5050351;28;20177;-60
2023/03/25 10:31:26;;;;;;;15.70;13.30;;;;;;;9.76;100.00;-12016.06;5050285;28;20627;-59
2023/03/25 10:33:55;;;;;;;15.20;13.73;;;;;;;9.83;100.00;-12335.09;5050603;28;20196;-61
2023/03/25 10:36:33;;;;;;;15.27;13.67;;;;;;;9.64;100.00;-12014.41;5050323;28;20200;-60
2023/03/25 10:39:04;;;;;;;20.83;14.20;;;;;;;9.79;100.00;-12016.50;5049669;28;20216;-60
2023/03/25 10:41:36;;;;;;;16.47;14.13;;;;;;;9.65;100.00;-11378.75;5050252;28;20189;-61
2023/03/25 10:44:09;;;;;;;14.00;12.70;;;;;;;9.61;100.00;-10424.31;5050082;28;20196;-61
2023/03/25 10:46:46;;;;;;;18.20;15.30;;;;;;;9.80;100.00;-10426.56;5050247;27;20631;-60
2023/03/25 10:49:16;;;;;;;15.63;12.30;;;;;;;9.55;100.00;-9787.66;5050346;28;20593;-60
2023/03/25 10:51:43;;;;;;;15.60;14.00;;;;;;;9.48;100.00;-9786.88;5049989;28;20189;-60
2023/03/25 10:54:14;;;;;;;21.23;14.53;;;;;;;9.43;100.00;-9468.34;5050008;28;20186;-61
2023/03/25 10:56:45;;;;;;;18.33;16.00;;;;;;;9.50;100.00;-8832.91;5050021;28;20242;-60
2023/03/25 10:59:20;;;;;;;19.17;14.03;;;;;;;9.53;100.00;-8196.88;5050142;28;20577;-60
2023/03/25 11:01:47;;;;;;;23.03;16.57;;;;;;;9.61;100.00;-8515.75;5050231;28;20189;-60
2023/03/25 11:04:17;;;;;;;22.87;16.40;;;;;;;9.61;100.00;-7561.00;5050354;28;20206;-60
2023/03/25 11:06:46;;;;;;;26.53;18.00;;;;;;;9.58;100.00;-8197.25;5049761;28;20595;-61
2023/03/25 11:09:24;;;;;;;14.23;12.23;;;;;;;9.58;100.00;-7560.75;5050363;28;20609;-60
2023/03/25 11:11:52;;;;;;;25.50;16.00;;;;;;;9.42;100.00;-7241.44;5049637;28;20185;-60
2023/03/25 11:14:24;;;;;;;21.40;13.87;;;;;;;9.24;100.00;-7876.41;5049968;28;20186;-60
2023/03/25 11:16:55;;;;;;;27.43;16.23;;;;;;;9.49;100.00;-7878.34;5049659;28;20238;-61
2023/03/25 11:19:26;;;;;;;23.37;15.57;;;;;;;9.18;100.00;-6921.72;5049692;28;20210;-60
2023/03/25 11:21:56;;;;;;;30.80;18.33;;;;;;;9.42;100.00;-7559.66;5049820;28;20653;-59
2023/03/25 11:24:31;;;;;;;26.80;19.50;;;;;;;9.61;100.00;-7561.00;5049808;28;20185;-60
2023/03/25 11:26:59;;;;;;;25.53;17.37;;;;;;;9.56;100.00;-6287.34;5049426;28;20665;-60
2023/03/25 11:29:27;;;;;;;22.57;17.57;;;;;;;9.46;100.00;-7241.69;5049622;28;20218;-60
2023/03/25 11:32:06;;;;;;;25.57;17.17;;;;;;;9.44;100.00;-7877.94;5049438;28;20178;-61
2023/03/25 11:34:38;;;;;;;27.30;19.40;;;;;;;9.72;100.00;-8516.63;5049356;28;20185;-60
2023/03/25 11:37:16;;;;;;;29.57;19.20;;;;;;;9.76;100.00;-9153.44;5049346;28;20181;-60
2023/03/25 11:39:49;;;;;;;32.13;19.60;;;;;;;9.72;100.00;-10425.63;5049566;28;20571;-59